Time;durP1;ratioP1;P1;durP2;ratioP2;P2;SDS_P1;SDS_P2;PMS_P1;PMS_P2;Temp;Humidity;BMP_temperature;BMP_pressure;BME280_temperature;BME280_humidity;BME280_pressure;Samples;Min_cycle;Max_cycle;Signal;HPM_P1;HPM_P2
2022/09/19 00:01:13;;;;;;;3.25;1.08;;;10.80;99.90;;;;;;4993973;28;20418;-59
2022/09/19 00:03:41;;;;;;;2.85;0.98;;;10.80;99.90;;;;;;4991617;28;20018;-59
2022/09/19 00:06:09;;;;;;;1.63;1.00;;;10.80;99.90;;;;;;4993319;28;20044;-59
2022/09/19 00:08:37;;;;;;;3.15;1.10;;;10.70;99.90;;;;;;4994113;28;20066;-58
2022/09/19 00:11:06;;;;;;;5.93;1.27;;;10.60;99.90;;;;;;4994563;28;20118;-55
2022/09/19 00:13:34;;;;;;;2.92;1.10;;;10.50;99.90;;;;;;4990584;28;20022;-59
2022/09/19 00:15:59;;;;;;;3.00;1.05;;;10.50;99.90;;;;;;4992124;28;20418;-59
2022/09/19 00:18:26;;;;;;;2.22;1.10;;;10.40;99.90;;;;;;5003338;28;20033;-59
2022/09/19 00:20:52;;;;;;;2.00;1.10;;;10.30;99.90;;;;;;4987760;28;20026;-59
2022/09/19 00:26:06;;;;;;;2.40;0.95;;;10.20;99.90;;;;;;4998495;28;20072;-57
2022/09/19 00:28:32;;;;;;;3.95;1.02;;;10.10;99.90;;;;;;5008190;28;20382;-59
2022/09/19 00:31:00;;;;;;;1.92;0.80;;;10.00;99.90;;;;;;5009901;28;20041;-60
2022/09/19 00:33:30;;;;;;;1.80;1.05;;;10.00;99.90;;;;;;5002438;28;20072;-60
2022/09/19 00:36:02;;;;;;;1.38;0.98;;;9.90;99.90;;;;;;4982254;28;20090;-60
2022/09/19 00:38:29;;;;;;;1.55;1.05;;;9.80;99.90;;;;;;5003889;28;20034;-60
2022/09/19 00:40:56;;;;;;;1.35;1.00;;;9.70;99.90;;;;;;4999220;28;20121;-60
2022/09/19 00:43:25;;;;;;;1.40;0.70;;;9.60;99.90;;;;;;4995275;28;20053;-60
2022/09/19 00:45:52;;;;;;;1.50;1.15;;;9.50;99.90;;;;;;4995978;28;20033;-60
2022/09/19 00:48:20;;;;;;;1.30;0.80;;;9.40;99.90;;;;;;5002373;28;20053;-60
2022/09/19 00:50:52;;;;;;;0.80;0.80;;;9.40;99.90;;;;;;4999982;28;20031;-60
2022/09/19 00:53:23;;;;;;;4.05;0.95;;;9.30;99.90;;;;;;5005806;28;20042;-58
2022/09/19 00:55:55;;;;;;;1.85;1.02;;;9.30;99.90;;;;;;4994246;28;20125;-58
2022/09/19 00:58:34;;;;;;;1.75;0.98;;;9.30;99.90;;;;;;4995953;28;20045;-58
2022/09/19 01:01:01;;;;;;;2.30;1.20;;;9.30;99.90;;;;;;4990116;28;20031;-58
2022/09/19 01:03:28;;;;;;;4.93;0.90;;;9.20;99.90;;;;;;5003714;28;20029;-58
2022/09/19 01:06:21;;;;;;;2.83;0.93;;;9.20;99.90;;;;;;4990120;28;20030;-58
2022/09/19 01:08:50;;;;;;;1.55;0.88;;;9.10;99.90;;;;;;4994986;28;20474;-59
2022/09/19 01:11:50;;;;;;;1.70;1.10;;;9.20;99.90;;;;;;4995462;28;20045;-58
2022/09/19 01:14:30;;;;;;;1.48;0.70;;;9.20;99.90;;;;;;4987392;28;20026;-58
2022/09/19 01:17:10;;;;;;;1.65;1.20;;;9.20;99.90;;;;;;4994661;28;20033;-58
2022/09/19 01:19:59;;;;;;;3.90;1.20;;;9.20;99.90;;;;;;4990621;28;20026;-59
2022/09/19 01:23:05;;;;;;;2.67;1.05;;;9.20;99.90;;;;;;4999798;28;20041;-59
2022/09/19 01:25:38;;;;;;;2.03;1.27;;;9.20;99.90;;;;;;4992039;28;20433;-58
2022/09/19 01:28:14;;;;;;;1.65;1.10;;;9.20;99.90;;;;;;4997013;28;20054;-58
2022/09/19 01:31:16;;;;;;;1.85;1.08;;;9.20;99.90;;;;;;4992362;28;20026;-59
2022/09/19 01:33:38;;;;;;;1.40;1.13;;;9.20;99.90;;;;;;4993052;28;20045;-59
2022/09/19 01:36:05;;;;;;;2.50;1.15;;;9.10;99.90;;;;;;4992728;28;20130;-59
2022/09/19 01:38:37;;;;;;;1.63;0.90;;;9.10;99.90;;;;;;5002406;28;20056;-59
2022/09/19 01:41:07;;;;;;;0.90;0.85;;;9.00;99.90;;;;;;5001913;28;20034;-54
2022/09/19 01:43:33;;;;;;;2.03;0.95;;;9.00;99.90;;;;;;5001955;28;20048;-59
2022/09/19 01:46:07;;;;;;;1.20;0.80;;;9.00;99.90;;;;;;5001582;28;20094;-59
2022/09/19 01:48:51;;;;;;;2.90;1.00;;;8.90;99.90;;;;;;4996169;28;20031;-59
2022/09/19 01:51:31;;;;;;;2.60;0.93;;;8.90;99.90;;;;;;5001117;28;20018;-59
2022/09/19 01:54:21;;;;;;;4.18;0.93;;;8.90;99.90;;;;;;5002048;28;20037;-59
2022/09/19 01:56:59;;;;;;;1.23;1.02;;;9.00;99.90;;;;;;4995997;28;20433;-59
2022/09/19 01:59:55;;;;;;;4.50;1.52;;;9.10;99.90;;;;;;4995474;28;20092;-59
2022/09/19 02:02:36;;;;;;;2.80;1.20;;;9.20;99.90;;;;;;4992577;28;20026;-59
2022/09/19 02:05:13;;;;;;;2.22;1.38;;;9.20;99.90;;;;;;4994138;28;20073;-59
2022/09/19 02:07:45;;;;;;;1.38;1.10;;;9.10;99.90;;;;;;4995393;28;20027;-59
2022/09/19 02:10:25;;;;;;;2.08;1.00;;;9.20;99.90;;;;;;5005979;28;20026;-59
2022/09/19 02:12:56;;;;;;;5.43;1.10;;;9.20;99.90;;;;;;4998032;28;20033;-59
2022/09/19 02:15:28;;;;;;;1.00;0.65;;;9.20;99.90;;;;;;5000359;28;20037;-58
2022/09/19 02:18:12;;;;;;;1.52;1.00;;;9.30;99.90;;;;;;4996702;28;20054;-59
2022/09/19 02:20:41;;;;;;;2.22;0.82;;;9.30;99.90;;;;;;5000149;28;20037;-58
2022/09/19 02:23:14;;;;;;;2.03;0.80;;;9.40;99.90;;;;;;4996583;28;20041;-59
2022/09/19 02:25:42;;;;;;;1.77;0.93;;;9.40;99.90;;;;;;4999252;28;20452;-58
2022/09/19 02:28:13;;;;;;;1.15;0.70;;;9.50;99.90;;;;;;4997798;28;20022;-59
2022/09/19 02:30:42;;;;;;;2.15;0.80;;;9.50;99.90;;;;;;4997515;28;20034;-58
2022/09/19 02:33:09;;;;;;;1.23;1.02;;;9.50;99.90;;;;;;4998187;28;20031;-59
2022/09/19 02:35:50;;;;;;;1.42;0.82;;;9.40;99.90;;;;;;4994476;28;20105;-58
2022/09/19 02:38:43;;;;;;;3.35;1.40;;;9.30;99.90;;;;;;4994729;28;20057;-58
2022/09/19 02:41:52;;;;;;;2.28;1.20;;;9.20;99.90;;;;;;4998917;28;20034;-58
2022/09/19 02:44:23;;;;;;;1.55;1.17;;;9.10;99.90;;;;;;4992421;28;20494;-58
2022/09/19 02:47:02;;;;;;;2.05;1.50;;;9.00;99.90;;;;;;4999577;28;20022;-58
2022/09/19 02:49:38;;;;;;;2.40;1.33;;;9.00;99.90;;;;;;5000810;28;20070;-59
2022/09/19 02:52:19;;;;;;;2.20;1.23;;;9.00;99.90;;;;;;4996911;28;20053;-59
2022/09/19 02:54:53;;;;;;;3.13;1.75;;;8.90;99.90;;;;;;4994304;28;20046;-58
2022/09/19 02:57:22;;;;;;;2.80;1.58;;;8.90;99.90;;;;;;4997886;28;20029;-59
2022/09/19 02:59:51;;;;;;;3.45;1.10;;;8.90;99.90;;;;;;4993438;28;20026;-58
2022/09/19 03:02:25;;;;;;;5.63;1.15;;;8.90;99.90;;;;;;4996616;28;20042;-59
2022/09/19 03:05:00;;;;;;;1.67;1.23;;;8.90;99.90;;;;;;4995691;28;20103;-58
2022/09/19 03:07:33;;;;;;;2.15;1.13;;;8.90;99.90;;;;;;5002959;28;20057;-58
2022/09/19 03:10:15;;;;;;;2.22;1.10;;;9.20;99.90;;;;;;4988257;28;20026;-58
2022/09/19 03:13:03;;;;;;;5.38;1.48;;;9.50;99.90;;;;;;4999572;28;20026;-59
2022/09/19 03:15:40;;;;;;;3.63;1.20;;;9.80;99.90;;;;;;4986494;28;20038;-59
2022/09/19 03:18:10;;;;;;;2.55;1.33;;;10.00;99.90;;;;;;5003704;28;20026;-59
2022/09/19 03:20:38;;;;;;;3.70;1.17;;;10.10;99.90;;;;;;4999848;28;20030;-59
2022/09/19 03:23:07;;;;;;;1.48;1.10;;;10.30;99.90;;;;;;4999483;28;20069;-59
2022/09/19 03:25:34;;;;;;;2.70;1.13;;;10.30;99.90;;;;;;4986497;28;20422;-59
2022/09/19 03:28:00;;;;;;;2.08;0.70;;;10.40;99.90;;;;;;4991850;28;20145;-59
2022/09/19 03:30:26;;;;;;;0.88;0.60;;;10.50;99.90;;;;;;5006899;28;20026;-59
2022/09/19 03:32:52;;;;;;;1.13;0.60;;;10.60;99.90;;;;;;4992714;28;20026;-56
2022/09/19 03:35:18;;;;;;;1.10;0.70;;;10.60;99.90;;;;;;5007648;28;20120;-58
2022/09/19 03:37:44;;;;;;;2.03;0.77;;;10.70;99.90;;;;;;4992838;28;20022;-58
2022/09/19 03:40:10;;;;;;;2.38;0.73;;;10.70;99.90;;;;;;4994338;28;20033;-58
2022/09/19 03:42:37;;;;;;;1.77;1.17;;;10.60;99.90;;;;;;5004838;22;20513;-59
2022/09/19 03:45:07;;;;;;;2.70;0.90;;;10.60;99.90;;;;;;4968673;28;20062;-61
2022/09/19 03:47:33;;;;;;;5.90;1.83;;;10.50;99.90;;;;;;4967526;28;20387;-59
2022/09/19 03:49:58;;;;;;;1.77;1.17;;;10.50;99.90;;;;;;4969326;28;20027;-59
2022/09/19 03:52:27;;;;;;;1.65;0.95;;;10.40;99.90;;;;;;4970102;28;20074;-59
2022/09/19 03:54:54;;;;;;;2.22;1.02;;;10.40;99.90;;;;;;4968602;28;20023;-59
2022/09/19 03:57:20;;;;;;;1.85;1.10;;;10.40;99.90;;;;;;4970505;28;20034;-59
2022/09/19 03:59:46;;;;;;;3.33;1.25;;;10.40;99.90;;;;;;4970704;28;20034;-59
2022/09/19 04:02:12;;;;;;;2.20;1.27;;;10.30;99.90;;;;;;4968271;28;20146;-59
2022/09/19 04:04:38;;;;;;;2.88;1.10;;;10.30;99.90;;;;;;4969999;28;20426;-60
2022/09/19 04:07:05;;;;;;;2.42;1.30;;;10.30;99.90;;;;;;4969040;28;20041;-59
2022/09/19 04:09:31;;;;;;;4.57;1.50;;;10.20;99.90;;;;;;4970709;28;20027;-58
2022/09/19 04:11:57;;;;;;;2.65;1.50;;;10.20;99.90;;;;;;4968758;28;20121;-58
2022/09/19 04:14:24;;;;;;;3.28;1.63;;;10.10;99.90;;;;;;4969823;28;20034;-59
2022/09/19 04:16:50;;;;;;;2.92;1.60;;;10.10;99.90;;;;;;4970480;28;20038;-58
2022/09/19 04:19:16;;;;;;;4.15;1.70;;;10.00;99.90;;;;;;4970777;28;20454;-58
2022/09/19 04:21:42;;;;;;;3.25;1.88;;;9.90;99.90;;;;;;4970462;28;20475;-58
2022/09/19 04:24:12;;;;;;;5.25;1.60;;;9.90;99.90;;;;;;4968222;28;20027;-59
2022/09/19 04:26:38;;;;;;;2.55;1.52;;;9.90;99.90;;;;;;4967749;28;20076;-59
2022/09/19 04:29:06;;;;;;;3.45;1.70;;;9.80;99.90;;;;;;4969031;28;20030;-59
2022/09/19 04:31:39;;;;;;;4.53;1.92;;;9.80;99.90;;;;;;4970551;28;20031;-59
2022/09/19 04:34:14;;;;;;;4.45;1.70;;;9.80;99.90;;;;;;4965105;28;20438;-58
2022/09/19 04:36:41;;;;;;;2.97;1.80;;;9.80;99.90;;;;;;4970475;28;20082;-59
2022/09/19 04:39:06;;;;;;;3.80;1.52;;;9.80;99.90;;;;;;4966813;28;20062;-58
2022/09/19 04:41:34;;;;;;;3.45;1.48;;;9.90;99.90;;;;;;4969613;28;20101;-59
2022/09/19 04:44:01;;;;;;;3.42;2.00;;;9.90;99.90;;;;;;4967393;28;20062;-58
2022/09/19 04:46:28;;;;;;;3.42;1.60;;;9.90;99.90;;;;;;4970027;28;20035;-58
2022/09/19 04:48:58;;;;;;;3.10;1.65;;;10.00;99.90;;;;;;4968336;28;20026;-59
2022/09/19 04:51:25;;;;;;;4.53;2.53;;;9.90;99.90;;;;;;4970596;28;20125;-58
2022/09/19 04:53:51;;;;;;;2.22;2.03;;;9.90;99.90;;;;;;4967723;28;20030;-58
2022/09/19 04:56:18;;;;;;;3.70;1.67;;;9.90;99.90;;;;;;4971171;28;20039;-58
2022/09/19 04:58:45;;;;;;;4.70;1.52;;;10.00;99.90;;;;;;4971806;28;20109;-60
2022/09/19 05:01:11;;;;;;;2.00;1.67;;;9.90;99.90;;;;;;4967303;28;20494;-59
2022/09/19 05:03:37;;;;;;;2.53;1.20;;;10.00;99.90;;;;;;4969528;28;20023;-59
2022/09/19 05:06:05;;;;;;;1.88;1.30;;;10.10;99.90;;;;;;4969095;28;20045;-59
2022/09/19 05:08:32;;;;;;;1.90;1.23;;;10.20;99.90;;;;;;4970698;28;20038;-59
2022/09/19 05:11:03;;;;;;;2.70;1.02;;;10.20;99.90;;;;;;4968482;28;20097;-59
2022/09/19 05:13:31;;;;;;;3.28;1.45;;;10.30;99.90;;;;;;4960960;28;20540;-59
2022/09/19 05:16:00;;;;;;;2.08;1.30;;;10.30;99.90;;;;;;4971822;28;20502;-60
2022/09/19 05:18:26;;;;;;;3.17;1.15;;;10.30;99.90;;;;;;4973995;28;20031;-59
2022/09/19 05:20:54;;;;;;;1.40;1.20;;;10.30;99.90;;;;;;4972113;28;20390;-59
2022/09/19 05:23:24;;;;;;;2.42;0.90;;;10.30;99.90;;;;;;4972030;28;20085;-59
2022/09/19 05:25:53;;;;;;;2.03;1.20;;;10.30;99.90;;;;;;4972656;28;20018;-59
2022/09/19 05:28:26;;;;;;;4.35;0.90;;;10.30;99.90;;;;;;4972740;28;20031;-59
2022/09/19 05:30:55;;;;;;;3.40;0.90;;;10.40;99.90;;;;;;4971431;28;20130;-59
2022/09/19 05:33:28;;;;;;;2.85;0.82;;;10.40;99.90;;;;;;4972129;28;20106;-59
2022/09/19 05:36:00;;;;;;;3.80;1.00;;;10.50;99.90;;;;;;4961014;28;20166;-59
2022/09/19 05:38:30;;;;;;;2.53;0.85;;;10.50;99.90;;;;;;4973190;28;20058;-60
2022/09/19 05:40:58;;;;;;;3.03;0.93;;;10.60;99.90;;;;;;4971804;28;20089;-60
2022/09/19 05:43:24;;;;;;;3.20;0.73;;;10.70;99.90;;;;;;4971802;28;20074;-59
2022/09/19 05:45:52;;;;;;;4.55;1.05;;;10.80;99.90;;;;;;4973555;28;20482;-59
2022/09/19 05:48:18;;;;;;;2.17;0.73;;;10.90;99.90;;;;;;4972636;28;20398;-59
2022/09/19 05:50:45;;;;;;;1.48;0.93;;;11.00;99.90;;;;;;4973223;28;20034;-59
2022/09/19 05:55:57;;;;;;;1.77;0.60;;;11.00;99.90;;;;;;4971015;28;20509;-59
2022/09/19 05:58:24;;;;;;;2.35;0.55;;;11.00;99.90;;;;;;4971412;28;20042;-59
2022/09/19 06:00:51;;;;;;;4.72;0.70;;;11.10;99.90;;;;;;4972620;28;20372;-59
2022/09/19 06:03:20;;;;;;;4.25;0.60;;;11.10;99.90;;;;;;4973117;28;20031;-59
2022/09/19 06:05:48;;;;;;;3.65;0.70;;;11.20;99.90;;;;;;4971464;28;20417;-59
2022/09/19 06:08:15;;;;;;;2.53;1.08;;;11.20;99.90;;;;;;4970078;28;20034;-59
2022/09/19 06:10:43;;;;;;;3.75;0.82;;;11.20;99.90;;;;;;4973128;28;20045;-59
2022/09/19 06:13:18;;;;;;;2.35;0.80;;;11.30;99.90;;;;;;4970527;28;20066;-59
2022/09/19 06:15:45;;;;;;;1.90;0.60;;;11.30;99.90;;;;;;4970284;28;20157;-59
2022/09/19 06:18:11;;;;;;;1.63;0.75;;;11.40;99.90;;;;;;4971078;28;20471;-60
2022/09/19 06:20:38;;;;;;;3.55;0.82;;;11.40;99.90;;;;;;4972523;28;20516;-59
2022/09/19 06:23:06;;;;;;;2.47;0.85;;;11.40;99.90;;;;;;4970186;28;20332;-59
2022/09/19 06:25:37;;;;;;;1.45;0.75;;;11.40;99.90;;;;;;4972529;28;20035;-59
2022/09/19 06:28:11;;;;;;;2.95;0.80;;;11.40;99.90;;;;;;4968719;28;20042;-59
2022/09/19 06:30:37;;;;;;;1.85;0.70;;;11.40;99.90;;;;;;4967521;28;20054;-58
2022/09/19 06:33:08;;;;;;;2.13;0.82;;;11.40;99.90;;;;;;4970581;28;20101;-59
2022/09/19 06:35:34;;;;;;;3.33;0.80;;;11.40;99.90;;;;;;4972045;28;20039;-59
2022/09/19 06:38:01;;;;;;;2.95;0.90;;;11.50;99.90;;;;;;4970999;28;20034;-59
2022/09/19 06:40:28;;;;;;;2.97;0.90;;;11.50;99.90;;;;;;4970343;28;20058;-59
2022/09/19 06:43:02;;;;;;;2.45;1.17;;;11.60;99.90;;;;;;4967578;28;20395;-59
2022/09/19 06:45:37;;;;;;;3.22;1.00;;;11.60;99.90;;;;;;4968244;28;20035;-60
2022/09/19 06:48:03;;;;;;;1.55;0.70;;;11.70;99.90;;;;;;4961810;28;20118;-60
2022/09/19 06:50:30;;;;;;;3.35;1.20;;;11.70;99.90;;;;;;4971904;28;20117;-59
2022/09/19 06:52:56;;;;;;;1.80;0.98;;;11.80;99.90;;;;;;4969625;28;20578;-59
2022/09/19 06:55:25;;;;;;;1.30;0.65;;;11.80;99.90;;;;;;4969428;28;20134;-59
2022/09/19 06:58:02;;;;;;;2.95;0.65;;;11.90;99.90;;;;;;4971453;28;20034;-60
2022/09/19 07:00:30;;;;;;;1.98;0.93;;;11.90;99.90;;;;;;4966800;28;20034;-59
2022/09/19 07:03:04;;;;;;;3.58;1.33;;;12.00;99.90;;;;;;4970203;28;20022;-59
2022/09/19 07:05:37;;;;;;;7.35;1.90;;;12.10;99.90;;;;;;4968343;28;20027;-59
2022/09/19 07:08:04;;;;;;;1.67;0.98;;;12.20;99.90;;;;;;4969557;28;20069;-58
2022/09/19 07:10:30;;;;;;;3.60;0.43;;;12.20;99.90;;;;;;4970501;28;20054;-59
2022/09/19 07:13:01;;;;;;;4.45;0.70;;;12.30;99.90;;;;;;4966041;28;20038;-59
2022/09/19 07:15:27;;;;;;;3.03;0.80;;;12.30;99.90;;;;;;4969422;28;20517;-60
2022/09/19 07:17:54;;;;;;;3.15;0.68;;;12.30;99.90;;;;;;4968245;28;20113;-60
2022/09/19 07:20:21;;;;;;;13.80;1.05;;;12.30;99.90;;;;;;4966939;28;20034;-61
2022/09/19 07:22:47;;;;;;;4.82;0.80;;;12.40;99.90;;;;;;4970967;28;20501;-60
2022/09/19 07:25:13;;;;;;;0.80;0.50;;;12.40;99.90;;;;;;4967643;28;20113;-60
2022/09/19 07:27:42;;;;;;;0.40;0.30;;;12.40;99.90;;;;;;4969043;28;20027;-60
2022/09/19 07:30:08;;;;;;;1.30;0.47;;;12.40;99.90;;;;;;4966512;28;20054;-61
2022/09/19 07:32:34;;;;;;;2.00;0.57;;;12.40;99.90;;;;;;4966167;28;20189;-60
2022/09/19 07:34:59;;;;;;;2.08;0.80;;;12.40;99.90;;;;;;4963350;28;20121;-60
2022/09/19 07:37:26;;;;;;;1.13;0.63;;;12.40;99.90;;;;;;4968472;28;20019;-60
2022/09/19 07:39:52;;;;;;;2.75;0.47;;;12.50;99.90;;;;;;4968940;28;20474;-60
2022/09/19 07:42:20;;;;;;;0.70;0.60;;;12.50;99.90;;;;;;4967666;28;20034;-60
2022/09/19 07:44:46;;;;;;;0.40;0.30;;;12.60;99.90;;;;;;4966510;28;20031;-59
2022/09/19 07:47:26;;;;;;;1.85;0.57;;;12.60;99.90;;;;;;4966762;28;20027;-59
2022/09/19 07:49:54;;;;;;;0.85;0.70;;;12.70;99.90;;;;;;4965963;28;20026;-59
2022/09/19 07:52:20;;;;;;;1.05;0.52;;;12.90;99.90;;;;;;4970664;28;20037;-59
2022/09/19 07:54:46;;;;;;;0.82;0.70;;;12.90;99.90;;;;;;4969039;28;20042;-59
2022/09/19 07:57:12;;;;;;;0.43;0.38;;;13.00;99.90;;;;;;4966633;28;20045;-62
2022/09/19 07:59:39;;;;;;;1.80;0.70;;;13.10;99.90;;;;;;4968797;28;20109;-60
2022/09/19 08:02:08;;;;;;;0.63;0.43;;;13.20;99.90;;;;;;4972002;28;20376;-60
2022/09/19 08:04:34;;;;;;;1.45;0.50;;;13.30;99.90;;;;;;4964353;28;20023;-60
2022/09/19 08:07:00;;;;;;;2.08;0.60;;;13.40;99.90;;;;;;4968502;28;20411;-60
2022/09/19 08:09:26;;;;;;;1.20;0.55;;;13.50;99.90;;;;;;4970222;28;20491;-60
2022/09/19 08:11:52;;;;;;;1.35;0.80;;;13.50;99.90;;;;;;4959580;28;20122;-60
2022/09/19 08:14:18;;;;;;;1.08;0.50;;;13.50;99.90;;;;;;4970072;28;20117;-60
2022/09/19 08:16:44;;;;;;;0.50;0.47;;;13.60;99.90;;;;;;4970241;28;20035;-59
2022/09/19 08:19:10;;;;;;;1.02;0.60;;;13.80;99.90;;;;;;4972495;28;20031;-59
2022/09/19 08:21:36;;;;;;;1.02;0.77;;;13.80;99.90;;;;;;4970119;28;20498;-60
2022/09/19 08:24:02;;;;;;;0.65;0.63;;;13.80;99.90;;;;;;4968434;28;20027;-59
2022/09/19 08:26:28;;;;;;;1.52;0.47;;;13.90;99.90;;;;;;4970059;28;20439;-59
2022/09/19 08:28:53;;;;;;;0.55;0.38;;;13.90;99.90;;;;;;4967613;28;20023;-59
2022/09/19 08:31:20;;;;;;;0.68;0.50;;;14.00;99.90;;;;;;4970369;28;20035;-60
2022/09/19 08:33:47;;;;;;;1.08;0.45;;;14.00;99.90;;;;;;4970187;28;20027;-59
2022/09/19 08:36:14;;;;;;;1.10;0.30;;;14.10;99.90;;;;;;4963014;28;20515;-59
2022/09/19 08:38:40;;;;;;;0.88;0.25;;;14.30;99.90;;;;;;4966707;28;20089;-59
2022/09/19 08:41:33;;;;;;;1.08;0.32;;;14.40;99.90;;;;;;4967654;28;20110;-60
2022/09/19 08:44:19;;;;;;;;;;;14.60;99.90;;;;;;4965859;28;20116;-60
2022/09/19 08:47:11;;;;;;;0.68;0.20;;;14.70;99.90;;;;;;4970353;28;19917;-60
2022/09/19 08:49:46;;;;;;;1.07;0.47;;;14.80;99.90;;;;;;4966089;28;20038;-60
2022/09/19 08:52:33;;;;;;;0.43;0.38;;;14.80;99.90;;;;;;4969659;28;20795;-60
2022/09/19 08:55:01;;;;;;;7.22;1.38;;;15.00;99.90;;;;;;4969607;28;20133;-60
2022/09/19 08:57:54;;;;;;;1.10;0.75;;;15.20;99.90;;;;;;4973664;28;20102;-60
2022/09/19 09:00:31;;;;;;;;;;;15.30;99.90;;;;;;4967996;28;20063;-62
2022/09/19 09:03:34;;;;;;;1.73;0.57;;;15.40;99.90;;;;;;4984043;28;20008;-60
2022/09/19 09:06:12;;;;;;;8.77;1.00;;;15.40;99.90;;;;;;4970284;28;20093;-59
2022/09/19 09:08:43;;;;;;;0.90;0.32;;;15.60;99.90;;;;;;4973507;28;20027;-60
2022/09/19 09:11:22;;;;;;;1.63;0.47;;;15.70;99.90;;;;;;4969480;28;20077;-60
2022/09/19 09:14:15;;;;;;;3.42;0.70;;;15.70;99.90;;;;;;4965856;28;20483;-59
2022/09/19 09:16:49;;;;;;;2.47;0.80;;;15.70;99.90;;;;;;4966137;28;20042;-60
2022/09/19 09:19:27;;;;;;;2.17;0.38;;;15.80;99.90;;;;;;4965690;28;20035;-60
2022/09/19 09:22:24;;;;;;;1.90;0.60;;;15.90;99.90;;;;;;4966861;28;20046;-59
2022/09/19 09:25:02;;;;;;;0.75;0.30;;;16.10;99.90;;;;;;4969407;28;20045;-59
2022/09/19 09:27:45;;;;;;;0.85;0.45;;;16.20;99.90;;;;;;4971413;28;20038;-60
2022/09/19 09:30:18;;;;;;;1.85;0.20;;;16.30;99.90;;;;;;4967780;28;20434;-59
2022/09/19 09:32:49;;;;;;;1.20;0.35;;;16.30;99.90;;;;;;4972289;28;20023;-59
2022/09/19 09:35:27;;;;;;;0.45;0.30;;;16.40;99.90;;;;;;4967699;28;20126;-59
2022/09/19 09:38:08;;;;;;;0.32;0.30;;;16.70;99.90;;;;;;4971628;28;20034;-59
2022/09/19 09:43:20;;;;;;;0.20;0.10;;;16.90;99.90;;;;;;4972673;28;20153;-60
2022/09/19 09:45:49;;;;;;;0.65;0.43;;;16.60;99.90;;;;;;4971643;28;20109;-60
2022/09/19 09:48:24;;;;;;;2.17;0.30;;;16.80;99.90;;;;;;4971155;28;20031;-60
2022/09/19 09:51:04;;;;;;;1.15;0.17;;;17.00;99.90;;;;;;4970918;28;20033;-60
2022/09/19 09:53:53;;;;;;;1.48;0.30;;;17.10;99.90;;;;;;4966238;28;20078;-59
2022/09/19 09:56:47;;;;;;;0.57;0.40;;;17.10;99.90;;;;;;4968863;28;20054;-62
2022/09/19 10:05:36;;;;;;;0.98;0.17;;;17.80;99.90;;;;;;4931192;29;20046;-59
2022/09/19 10:08:18;;;;;;;1.90;0.20;;;17.90;99.90;;;;;;4930423;29;20028;-59
2022/09/19 10:10:45;;;;;;;0.60;0.30;;;17.90;99.90;;;;;;4925955;29;20439;-58
2022/09/19 10:13:32;;;;;;;0.47;0.22;;;18.00;99.90;;;;;;4926475;29;20518;-59
2022/09/19 10:16:02;;;;;;;0.40;0.20;;;17.90;99.90;;;;;;4927388;29;20052;-59
2022/09/19 10:18:37;;;;;;;0.43;0.20;;;17.90;99.90;;;;;;4930941;29;20102;-59
2022/09/19 10:21:03;;;;;;;2.03;0.22;;;18.00;99.90;;;;;;4929789;29;20032;-60
2022/09/19 10:23:33;;;;;;;1.25;0.50;;;18.10;99.90;;;;;;4930757;29;20135;-60
2022/09/19 10:26:15;;;;;;;0.90;0.22;;;18.20;99.90;;;;;;4929300;29;20028;-60
2022/09/19 10:28:49;;;;;;;1.95;1.10;;;18.20;99.90;;;;;;4930735;29;20047;-60
2022/09/19 10:31:38;;;;;;;1.85;0.20;;;18.30;99.90;;;;;;4929930;29;20472;-60
2022/09/19 10:34:21;;;;;;;1.92;0.88;;;18.20;99.90;;;;;;4924906;29;20039;-61
2022/09/19 10:36:47;;;;;;;0.32;0.30;;;18.40;99.90;;;;;;4925614;29;20054;-60
2022/09/19 10:39:17;;;;;;;4.22;0.80;;;18.20;99.90;;;;;;4929009;29;20118;-60
2022/09/19 10:41:44;;;;;;;2.40;0.45;;;18.20;99.90;;;;;;4943292;28;20447;-60
2022/09/19 10:44:30;;;;;;;0.70;0.22;;;18.30;99.90;;;;;;4966949;28;20434;-60
2022/09/19 10:47:03;;;;;;;0.10;0.10;;;18.40;99.90;;;;;;4969733;28;20031;-59
2022/09/19 10:49:46;;;;;;;2.10;0.22;;;18.40;99.90;;;;;;4970404;28;20035;-59
2022/09/19 10:52:30;;;;;;;0.93;0.40;;;18.50;99.90;;;;;;4967866;28;20589;-60
2022/09/19 10:54:58;;;;;;;0.45;0.17;;;18.50;99.90;;;;;;4969891;28;20118;-60
2022/09/19 10:57:40;;;;;;;2.15;0.63;;;18.50;99.90;;;;;;4970493;28;20034;-60
2022/09/19 11:00:43;;;;;;;0.77;0.40;;;18.60;99.90;;;;;;4968533;28;20033;-59
2022/09/19 11:03:32;;;;;;;1.90;0.90;;;18.90;99.90;;;;;;4964082;28;20089;-59
2022/09/19 11:06:16;;;;;;;0.30;0.30;;;19.10;99.90;;;;;;4967653;28;20026;-59
2022/09/19 11:08:50;;;;;;;0.75;0.40;;;19.10;99.90;;;;;;4970844;28;20036;-59
2022/09/19 11:11:45;;;;;;;0.20;0.20;;;18.90;99.90;;;;;;4961611;28;20030;-59
2022/09/19 11:14:15;;;;;;;0.40;0.20;;;19.00;99.90;;;;;;4968107;28;20482;-59
2022/09/19 11:17:00;;;;;;;0.25;0.20;;;19.10;99.90;;;;;;4969916;28;20387;-59
2022/09/19 11:19:49;;;;;;;0.75;0.47;;;19.20;99.90;;;;;;4967877;28;20062;-60
2022/09/19 11:22:29;;;;;;;1.10;0.20;;;19.20;99.90;;;;;;4969090;28;20427;-59
2022/09/19 11:25:14;;;;;;;0.95;0.15;;;19.00;99.90;;;;;;4966930;28;20035;-59
2022/09/19 11:27:52;;;;;;;0.17;0.10;;;19.10;99.90;;;;;;4969422;28;20030;-60
2022/09/19 11:30:24;;;;;;;0.50;0.38;;;19.60;99.90;;;;;;4968383;28;20561;-60
2022/09/19 11:33:16;;;;;;;1.48;0.35;;;20.40;99.90;;;;;;4966364;28;20053;-61
2022/09/19 11:35:53;;;;;;;0.20;0.20;;;21.00;97.60;;;;;;4968955;28;20042;-59
2022/09/19 11:38:34;;;;;;;0.30;0.22;;;21.50;96.40;;;;;;4970408;28;20039;-60
2022/09/19 11:41:41;;;;;;;0.65;0.25;;;21.80;94.20;;;;;;4959109;28;20158;-60
2022/09/19 11:44:23;;;;;;;4.50;0.20;;;22.00;94.20;;;;;;4963416;28;20049;-61
2022/09/19 11:47:22;;;;;;;0.60;0.15;;;22.00;93.20;;;;;;4967547;28;20033;-59
2022/09/19 11:49:50;;;;;;;0.47;0.15;;;22.20;93.60;;;;;;4969489;28;20035;-59
2022/09/19 11:52:17;;;;;;;1.65;0.38;;;22.60;92.60;;;;;;4967149;28;20031;-58
2022/09/19 11:55:03;;;;;;;0.90;0.30;;;22.40;92.80;;;;;;4970504;28;20027;-60
2022/09/19 11:57:50;;;;;;;1.15;0.30;;;22.90;90.00;;;;;;4969201;28;20046;-60
2022/09/19 12:00:20;;;;;;;1.85;0.20;;;23.20;90.10;;;;;;4967756;28;20037;-59
2022/09/19 12:03:24;;;;;;;0.50;0.25;;;23.10;87.80;;;;;;4970129;28;20109;-59
2022/09/19 12:06:11;;;;;;;0.30;0.20;;;22.90;90.00;;;;;;4962737;28;20487;-60
2022/09/19 12:09:09;;;;;;;3.20;0.70;;;23.10;88.40;;;;;;4968758;28;20034;-61
2022/09/19 12:11:41;;;;;;;0.85;0.10;;;23.30;86.30;;;;;;4966970;28;20027;-60
2022/09/19 12:14:46;;;;;;;0.15;0.15;;;22.70;86.70;;;;;;4968708;28;20037;-60
2022/09/19 12:17:18;;;;;;;0.20;0.20;;;23.00;85.50;;;;;;4960044;28;20468;-60
2022/09/19 12:19:47;;;;;;;;;;;23.20;86.30;;;;;;4969697;28;20121;-60
2022/09/19 12:22:26;;;;;;;1.35;0.20;;;23.20;85.80;;;;;;4968062;28;20421;-60
2022/09/19 12:25:01;;;;;;;0.28;0.28;;;23.30;84.10;;;;;;4973988;28;20070;-61
2022/09/19 12:27:54;;;;;;;1.58;0.20;;;23.20;82.10;;;;;;4969822;28;20035;-59
2022/09/19 12:30:23;;;;;;;0.68;0.20;;;22.50;85.00;;;;;;4967920;28;20500;-59
2022/09/19 12:33:10;;;;;;;0.77;0.30;;;22.10;87.70;;;;;;4958688;28;20042;-60
2022/09/19 12:35:43;;;;;;;0.80;0.30;;;22.30;87.60;;;;;;4973911;28;20046;-60
2022/09/19 12:38:31;;;;;;;2.45;0.55;;;21.80;90.60;;;;;;4971220;28;20557;-60
2022/09/19 12:41:11;;;;;;;0.90;0.45;;;22.70;88.00;;;;;;4970980;28;20038;-60
2022/09/19 12:43:59;;;;;;;2.95;0.40;;;23.50;83.10;;;;;;4971332;28;20081;-60
2022/09/19 12:46:37;;;;;;;0.82;0.30;;;23.50;80.40;;;;;;4973328;28;20110;-60
2022/09/19 12:49:45;;;;;;;0.63;0.52;;;23.70;77.00;;;;;;4968792;28;20039;-58
2022/09/19 12:52:23;;;;;;;1.85;0.30;;;23.80;77.70;;;;;;4968047;28;20188;-58
2022/09/19 12:55:14;;;;;;;1.40;0.40;;;23.80;76.20;;;;;;4971932;28;20062;-59
2022/09/19 12:58:03;;;;;;;0.80;0.40;;;24.10;76.00;;;;;;4971042;28;20035;-59
2022/09/19 13:00:35;;;;;;;1.35;0.50;;;24.50;75.50;;;;;;4966507;28;20577;-61
2022/09/19 13:03:13;;;;;;;1.70;0.35;;;24.50;73.60;;;;;;4969954;28;20043;-59
2022/09/19 13:05:45;;;;;;;1.35;0.60;;;25.10;69.80;;;;;;4970770;28;20483;-58
2022/09/19 13:08:41;;;;;;;2.33;0.43;;;25.30;68.80;;;;;;4971854;28;20054;-59
2022/09/19 13:11:40;;;;;;;0.60;0.30;;;25.60;67.00;;;;;;4966770;28;20070;-60
2022/09/19 13:14:14;;;;;;;1.65;0.50;;;24.50;69.00;;;;;;4971683;28;20050;-60
2022/09/19 13:23:30;;;;;;;0.52;0.22;;;24.50;69.10;;;;;;4971397;28;20049;-60
2022/09/19 13:25:35;;;;;;;0.47;0.30;;;24.20;69.50;;;;;;4969719;28;20069;-60
2022/09/19 13:28:19;;;;;;;0.10;0.10;;;23.80;68.70;;;;;;4970360;28;20043;-59
2022/09/19 13:30:48;;;;;;;1.42;0.45;;;23.80;69.60;;;;;;4971911;28;20403;-59
2022/09/19 13:33:28;;;;;;;0.20;0.20;;;24.00;69.50;;;;;;4970313;28;20066;-59
2022/09/19 13:35:59;;;;;;;0.30;0.20;;;24.50;69.00;;;;;;4966559;28;20046;-60
2022/09/19 13:38:41;;;;;;;0.40;0.40;;;24.60;67.10;;;;;;4967705;28;20038;-60
2022/09/19 13:41:35;;;;;;;0.40;0.25;;;24.50;66.00;;;;;;4969578;28;20041;-61
2022/09/19 13:44:28;;;;;;;0.60;0.40;;;25.00;64.90;;;;;;4958604;28;20050;-59
2022/09/19 13:47:04;;;;;;;1.95;0.35;;;25.20;63.60;;;;;;4970810;28;20077;-60